Friday, February 23, 2018, 6:40 PM GMT
Back to Local

CYZX, Greenwood, N. S.

Location: , , Canada Lat: 44.983
Local Time: 6:40 PM GMT (18:40 GMT) Lon: -64.917
Time Zone: GMT Elev: 91 ft

Show me the last for .
Show Coded

Time T Td Feel RH Dir Speed Gust Alt SLP Vis Weather Sky Remarks
2018-02-23 18:00 30 21 - 68 - Calm - 30.60 30.61 15 BKN250 None
2018-02-23 17:00 28 18 - 63 340° 2 - 30.65 30.65 15 BKN250 None
2018-02-23 16:00 28 18 23 63 30° 5 - 30.68 30.68 15 BKN250 None
2018-02-23 15:00 25 9 19 49 30° 5 - 30.71 30.71 15 SCT250 None
2018-02-23 14:00 23 7 16 49 330° 6 - 30.72 30.73 15 FEW250 None
2018-02-23 13:00 23 10 14 57 10° 8 - 30.73 30.74 15 CLR None
2018-02-23 12:00 21 9 15 57 360° 5 - 30.73 30.73 15 CLR None
2018-02-23 11:00 19 9 13 62 30° 5 - 30.71 30.72 15 CLR None
2018-02-23 10:00 19 5 9 52 20° 8 - 30.71 30.71 15 CLR None
2018-02-23 09:00 23 5 12 45 30° 12 - 30.71 30.71 15 CLR None
2018-02-23 08:00 23 7 16 49 70° 6 - 30.69 30.70 15 CLR None
2018-02-23 07:00 25 9 20 49 10° 3 - 30.69 30.70 15 CLR None
2018-02-23 06:00 25 14 18 62 320° 6 - 30.67 30.68 15 CLR None
2018-02-23 05:00 25 14 - 62 - Calm - 30.65 30.65 15 CLR None
2018-02-23 04:00 27 12 23 53 260° 3 - 30.63 30.64 15 CLR None
2018-02-23 03:00 27 16 20 63 250° 6 - 30.63 30.63 15 CLR None
2018-02-23 02:00 28 16 23 58 200° 5 - 30.63 30.64 15 FEW160 None
2018-02-23 01:00 30 18 - 58 300° 2 - 30.62 30.63 15 BKN160 None
2018-02-23 00:00 30 16 23 54 300° 7 - 30.61 30.61 15 OVC140 None
2018-02-22 23:00 30 18 24 58 280° 6 - 30.60 30.60 15 OVC150 None
2018-02-22 22:00 30 18 23 58 290° 7 - 30.58 30.58 15 OVC150 None
2018-02-22 21:00 32 16 27 50 280° 5 - 30.56 30.56 15 BKN140 OVC230 None
2018-02-22 20:00 30 16 22 54 270° 9 - 30.56 30.56 15 OVC140 None
2018-02-22 19:00 32 16 24 50 340° 9 - 30.56 30.56 15 BKN250 None

Support USWX by starting your Amazon purchase here.